createdAt,value
2023-04-03T00:00:58.455Z,99937.16
2023-04-03T00:03:25.515Z,99921.47
2023-04-03T00:05:52.748Z,99923.56
2023-04-03T00:08:19.942Z,99928.41
2023-04-03T00:10:46.841Z,99918.63
2023-04-03T00:13:13.990Z,99915.88
2023-04-03T00:15:41.696Z,99926.22
2023-04-03T00:18:08.916Z,99922.53
2023-04-03T00:20:36.257Z,99922.53
2023-04-03T00:23:03.618Z,99923.50
2023-04-03T00:25:30.695Z,99929.41
2023-04-03T00:27:57.649Z,99932.63
2023-04-03T00:30:25.002Z,99929.34
2023-04-03T00:32:52.983Z,99925.94
2023-04-03T00:35:22.035Z,99930.56
2023-04-03T00:37:51.947Z,99936.06
2023-04-03T00:40:19.284Z,99931.09
2023-04-03T00:42:49.150Z,99927.66
2023-04-03T00:45:19.181Z,99926.84
2023-04-03T00:47:46.578Z,99924.66
2023-04-03T00:50:13.644Z,99920.31
2023-04-03T00:52:41.108Z,99925.50
2023-04-03T00:55:10.821Z,99914.81
2023-04-03T00:57:38.723Z,99913.53
2023-04-03T01:00:13.593Z,99910.94
2023-04-03T01:02:42.179Z,99915.34
2023-04-03T01:05:11.714Z,99910.19
2023-04-03T01:07:39.668Z,99903.88
2023-04-03T01:10:10.300Z,99904.16
2023-04-03T01:12:46.897Z,99899.47
2023-04-03T01:15:14.934Z,99897.81
2023-04-03T01:17:51.846Z,99900.00
2023-04-03T01:20:37.624Z,99890.16
2023-04-03T01:23:13.267Z,99890.81
2023-04-03T01:25:48.875Z,99887.88
2023-04-03T01:28:22.204Z,99882.09
2023-04-03T01:31:04.606Z,99893.44
2023-04-03T01:33:34.273Z,99900.25
2023-04-03T01:36:01.267Z,99893.56
2023-04-03T01:38:29.352Z,99891.97
2023-04-03T01:40:56.296Z,99888.88
2023-04-03T01:43:23.784Z,99895.56
2023-04-03T01:45:51.288Z,99901.09
2023-04-03T01:48:18.196Z,99913.38
2023-04-03T01:50:45.124Z,99916.94
2023-04-03T01:53:12.128Z,99921.16
2023-04-03T01:55:39.147Z,99928.75
2023-04-03T01:58:06.229Z,99930.06
2023-04-03T02:00:33.350Z,99931.34
2023-04-03T02:03:00.564Z,99937.34
2023-04-03T02:05:27.844Z,99937.28
2023-04-03T02:07:54.971Z,99934.88
2023-04-03T02:10:21.988Z,99942.97
2023-04-03T02:12:49.045Z,99944.75
2023-04-03T02:15:19.198Z,99944.41
2023-04-03T02:17:46.354Z,99942.63
2023-04-03T02:20:14.784Z,99947.19
2023-04-03T02:22:42.058Z,99945.41
2023-04-03T02:25:09.593Z,99943.28
2023-04-03T02:27:36.733Z,99931.81
2023-04-03T02:30:04.948Z,99933.75
2023-04-03T02:32:32.710Z,99934.88
2023-04-03T02:35:00.358Z,99931.00
2023-04-03T02:37:28.015Z,99932.63
2023-04-03T02:39:55.293Z,99938.94
2023-04-03T02:42:22.745Z,99937.31
2023-04-03T02:44:49.756Z,99936.66
2023-04-03T02:47:17.342Z,99935.69
2023-04-03T02:49:46.283Z,99934.91
2023-04-03T02:52:16.544Z,99938.63
2023-04-03T02:54:43.706Z,99941.22
2023-04-03T02:57:11.773Z,99946.38
2023-04-03T02:59:41.788Z,99957.22
2023-04-03T03:02:11.199Z,99955.28
2023-04-03T03:04:38.668Z,99947.38
2023-04-03T03:07:05.786Z,99955.31
2023-04-03T03:09:33.069Z,99960.31
2023-04-03T03:12:00.040Z,99961.94
2023-04-03T03:14:27.139Z,99974.72
2023-04-03T03:16:54.338Z,99972.91
2023-04-03T03:19:21.461Z,99975.53
2023-04-03T03:21:48.950Z,99983.63
2023-04-03T03:24:17.217Z,99983.28
2023-04-03T03:26:44.618Z,99979.69
2023-04-03T03:29:12.333Z,99989.44
2023-04-03T03:31:39.552Z,99984.25
2023-04-03T03:34:07.508Z,99998.03
2023-04-03T03:36:34.555Z,100003.22
2023-04-03T03:39:02.903Z,100004.53
2023-04-03T03:41:30.039Z,100002.41
2023-04-03T03:43:57.034Z,100005.59
2023-04-03T03:46:24.643Z,100010.94
2023-04-03T03:48:53.836Z,100020.69
2023-04-03T03:51:20.868Z,100013.03
2023-04-03T03:53:48.090Z,100036.16
2023-04-03T03:56:18.570Z,100030.63
2023-04-03T03:58:46.720Z,100022.38
2023-04-03T04:01:14.567Z,100024.94
2023-04-03T04:03:46.469Z,100025.88
2023-04-03T04:06:18.403Z,100026.69
2023-04-03T04:08:46.043Z,100035.31
2023-04-03T04:11:14.849Z,100032.03
2023-04-03T04:13:43.012Z,100039.97
2023-04-03T04:16:12.441Z,100040.34
2023-04-03T04:18:39.454Z,100036.16
2023-04-03T04:21:06.590Z,100028.94
2023-04-03T04:23:33.652Z,100029.09
2023-04-03T04:26:01.758Z,100034.75
2023-04-03T04:28:32.484Z,100039.78
2023-04-03T04:31:01.152Z,100039.78
2023-04-03T04:33:29.324Z,100044.31
2023-04-03T04:35:58.788Z,100033.75
2023-04-03T04:38:26.144Z,100038.81
2023-04-03T04:40:54.375Z,100029.59
2023-04-03T04:43:22.079Z,100041.34
2023-04-03T04:46:04.097Z,100033.16
2023-04-03T04:48:34.951Z,100033.00
2023-04-03T04:51:03.146Z,100033.34
2023-04-03T04:53:30.070Z,100028.56
2023-04-03T04:55:57.348Z,100039.47
2023-04-03T04:58:24.538Z,100025.59
2023-04-03T05:01:02.716Z,100026.69
2023-04-03T05:03:31.098Z,100017.88
2023-04-03T05:05:58.106Z,100024.41
2023-04-03T05:08:25.186Z,100023.13
2023-04-03T05:10:54.230Z,100026.25
2023-04-03T05:13:22.746Z,100026.72
2023-04-03T05:15:49.912Z,100031.44
2023-04-03T05:18:17.133Z,100030.66
2023-04-03T05:20:44.653Z,100030.81
2023-04-03T05:23:12.488Z,100029.28
2023-04-03T05:25:40.552Z,100023.00
2023-04-03T05:28:09.037Z,100018.91
2023-04-03T05:30:36.147Z,100021.78
2023-04-03T05:33:04.287Z,100020.25
2023-04-03T05:35:42.555Z,100027.19
2023-04-03T05:38:13.012Z,100026.38
2023-04-03T05:40:40.229Z,100033.38
2023-04-03T05:43:07.653Z,100037.81
2023-04-03T05:45:37.968Z,100048.41
2023-04-03T05:48:05.441Z,100039.59
2023-04-03T05:50:34.011Z,100043.44
2023-04-03T05:53:03.419Z,100043.13
2023-04-03T05:55:32.667Z,100054.78
2023-04-03T05:58:00.016Z,100055.94
2023-04-03T06:00:26.955Z,100060.34
2023-04-03T06:03:01.253Z,100060.38
2023-04-03T06:05:33.142Z,100064.47
2023-04-03T06:08:00.180Z,100072.63
2023-04-03T06:10:27.280Z,100071.47
2023-04-03T06:12:54.147Z,100082.69
2023-04-03T06:15:22.240Z,100089.56
2023-04-03T06:17:49.365Z,100088.72
2023-04-03T06:20:16.774Z,100093.47
2023-04-03T06:22:43.909Z,100107.06
2023-04-03T06:25:12.299Z,100111.53
2023-04-03T06:27:39.591Z,100117.56
2023-04-03T06:30:08.298Z,100116.06
2023-04-03T06:32:35.322Z,100139.47
2023-04-03T06:35:02.217Z,100137.34
2023-04-03T06:37:33.424Z,100144.03
2023-04-03T06:40:01.538Z,100153.16
2023-04-03T06:42:28.595Z,100157.34
2023-04-03T06:45:01.860Z,100167.06
2023-04-03T06:47:29.048Z,100169.63
2023-04-03T06:49:56.073Z,100178.31
2023-04-03T06:52:23.139Z,100176.38
2023-04-03T06:54:50.396Z,100178.81
2023-04-03T06:57:17.437Z,100174.19
2023-04-03T06:59:44.696Z,100175.56
2023-04-03T07:02:14.253Z,100165.44
2023-04-03T07:04:41.497Z,100172.09
2023-04-03T07:07:08.798Z,100166.75
2023-04-03T07:09:35.939Z,100166.09
2023-04-03T07:12:02.938Z,100155.59
2023-04-03T07:14:29.767Z,100157.16
2023-04-03T07:16:56.698Z,100171.50
2023-04-03T07:19:25.601Z,100163.13
2023-04-03T07:21:52.546Z,100168.63
2023-04-03T07:24:19.814Z,100169.13
2023-04-03T07:40:16.605Z,100183.00
2023-04-03T07:42:43.991Z,100182.03
2023-04-03T07:45:11.727Z,100194.78
2023-04-03T07:47:38.885Z,100194.50
2023-04-03T07:50:06.352Z,100186.47
2023-04-03T07:52:33.272Z,100197.19
2023-04-03T07:55:00.228Z,100203.59
2023-04-03T07:57:27.203Z,100211.84
2023-04-03T07:59:54.536Z,100204.25
2023-04-03T08:02:21.558Z,100207.09
2023-04-03T08:04:48.531Z,100211.84
2023-04-03T08:07:15.632Z,100216.56
2023-04-03T08:09:42.752Z,100213.91
2023-04-03T08:12:12.532Z,100213.63
2023-04-03T08:14:39.397Z,100222.16
2023-04-03T08:17:06.616Z,100213.78
2023-04-03T08:19:33.524Z,100218.13
2023-04-03T08:22:01.921Z,100216.38
2023-04-03T08:24:28.837Z,100215.84
2023-04-03T08:26:59.115Z,100221.06
2023-04-03T08:29:26.408Z,100213.75
2023-04-03T08:31:53.407Z,100212.84
2023-04-03T08:34:21.194Z,100213.31
2023-04-03T08:36:48.326Z,100208.72
2023-04-03T08:39:15.584Z,100204.63
2023-04-03T08:41:50.339Z,100216.84
2023-04-03T08:44:44.190Z,100216.50
2023-04-03T08:47:33.833Z,100209.69
2023-04-03T08:50:23.474Z,100211.09
2023-04-03T08:52:54.903Z,100213.56
2023-04-03T08:55:45.388Z,100216.72
2023-04-03T08:58:22.380Z,100207.19
2023-04-03T09:01:05.493Z,100205.75
2023-04-03T09:03:36.700Z,100202.47
2023-04-03T09:06:26.721Z,100213.09
2023-04-03T09:09:15.607Z,100216.91
2023-04-03T09:11:48.669Z,100208.47
2023-04-03T09:14:24.966Z,100213.28
2023-04-03T09:16:59.144Z,100192.88
2023-04-03T09:19:43.193Z,100203.88
2023-04-03T09:22:27.648Z,100200.78
2023-04-03T09:25:10.190Z,100198.09
2023-04-03T09:27:37.476Z,100195.75
2023-04-03T09:30:05.289Z,100194.50
2023-04-03T09:32:36.293Z,100201.94
2023-04-03T09:35:20.603Z,100208.44
2023-04-03T09:37:55.717Z,100194.19
2023-04-03T09:40:40.223Z,100208.31
2023-04-03T09:43:40.053Z,100205.59
2023-04-03T09:46:33.069Z,100208.94
2023-04-03T09:49:09.699Z,100233.00
2023-04-03T09:51:37.665Z,100218.03
2023-04-03T09:54:32.538Z,100224.22
2023-04-03T09:57:07.605Z,100219.47
2023-04-03T09:59:34.887Z,100221.59
2023-04-03T10:02:15.478Z,100213.44
2023-04-03T10:04:43.451Z,100211.19
2023-04-03T10:07:36.305Z,100210.59
2023-04-03T10:10:26.616Z,100211.75
2023-04-03T10:13:21.465Z,100209.47
2023-04-03T10:16:07.981Z,100216.00
2023-04-03T10:18:38.691Z,100214.03
2023-04-03T10:21:27.207Z,100215.56
2023-04-03T10:24:30.542Z,100212.66
2023-04-03T10:27:05.700Z,100216.00
2023-04-03T10:29:32.661Z,100209.28
2023-04-03T10:32:32.366Z,100204.94
2023-04-03T10:35:38.111Z,100198.69
2023-04-03T10:38:23.469Z,100187.31
2023-04-03T10:41:04.893Z,100190.22
2023-04-03T10:43:48.821Z,100182.56
2023-04-03T10:46:41.869Z,100193.03
2023-04-03T10:49:28.393Z,100197.06
2023-04-03T10:52:06.154Z,100180.31
2023-04-03T10:55:11.802Z,100182.84
2023-04-03T10:57:39.604Z,100193.84
2023-04-03T11:00:19.510Z,100184.16
2023-04-03T11:02:51.247Z,100207.88
2023-04-03T11:05:43.179Z,100186.13
2023-04-03T11:08:18.776Z,100183.13
2023-04-03T11:10:52.069Z,100189.72
2023-04-03T11:13:26.317Z,100182.44
2023-04-03T11:15:56.460Z,100174.22
2023-04-03T11:18:45.992Z,100187.19
2023-04-03T11:21:21.281Z,100190.28
2023-04-03T11:23:50.243Z,100187.63
2023-04-03T11:26:26.679Z,100198.34
2023-04-03T11:28:58.679Z,100197.84
2023-04-03T11:31:59.524Z,100195.28
2023-04-03T11:34:54.638Z,100179.31
2023-04-03T11:37:35.060Z,100183.19
2023-04-03T11:40:10.463Z,100192.88
2023-04-03T11:42:43.983Z,100196.47
2023-04-03T11:45:23.065Z,100182.25
2023-04-03T11:47:54.179Z,100183.09
2023-04-03T11:50:45.103Z,100183.84
2023-04-03T11:53:15.039Z,100186.38
2023-04-03T11:55:51.121Z,100181.00
2023-04-03T11:58:24.336Z,100176.06
2023-04-03T12:00:56.259Z,100198.00
2023-04-03T12:03:30.459Z,100182.06
2023-04-03T12:06:14.696Z,100185.78
2023-04-03T12:08:42.335Z,100183.97
2023-04-03T12:11:12.236Z,100188.84
2023-04-03T12:13:51.281Z,100187.16
2023-04-03T12:16:39.184Z,100171.56
2023-04-03T12:19:09.114Z,100171.41
2023-04-03T12:21:48.093Z,100181.41
2023-04-03T12:24:37.149Z,100167.06
2023-04-03T12:27:15.171Z,100164.88
2023-04-03T12:29:53.260Z,100157.59
2023-04-03T12:32:39.041Z,100156.22
2023-04-03T12:35:18.162Z,100154.56
2023-04-03T12:38:03.990Z,100157.66
2023-04-03T12:40:43.206Z,100150.59
2023-04-03T12:43:28.357Z,100140.16
2023-04-03T12:46:04.580Z,100148.28
2023-04-03T12:49:01.480Z,100141.91
2023-04-03T12:51:43.248Z,100136.91
2023-04-03T12:54:28.620Z,100135.84
2023-04-03T12:57:22.523Z,100124.31
2023-04-03T12:59:49.976Z,100138.75
2023-04-03T13:02:35.187Z,100130.31
2023-04-03T13:05:11.109Z,100134.78
2023-04-03T13:07:42.050Z,100137.13
2023-04-03T13:10:09.185Z,100148.25
2023-04-03T13:12:59.489Z,100135.44
2023-04-03T13:15:30.566Z,100151.25
2023-04-03T13:17:57.978Z,100149.09
2023-04-03T13:20:28.821Z,100151.97
2023-04-03T13:23:04.836Z,100143.56
2023-04-03T13:25:35.424Z,100144.75
2023-04-03T13:28:13.330Z,100144.06
2023-04-03T13:30:54.845Z,100133.66
2023-04-03T13:33:28.928Z,100141.34
2023-04-03T13:36:07.978Z,100136.44
2023-04-03T13:38:37.475Z,100136.09
2023-04-03T13:41:26.965Z,100143.81
2023-04-03T13:44:00.574Z,100142.78
2023-04-03T13:46:33.914Z,100137.72
2023-04-03T13:49:20.115Z,100134.03
2023-04-03T13:51:56.967Z,100151.53
2023-04-03T13:54:33.731Z,100154.03
2023-04-03T13:57:02.437Z,100152.31
2023-04-03T13:59:37.194Z,100155.81
2023-04-03T14:02:04.067Z,100166.00
2023-04-03T14:04:57.340Z,100172.28
2023-04-03T14:07:25.083Z,100164.69
2023-04-03T14:09:52.165Z,100164.06
2023-04-03T14:12:40.284Z,100186.06
2023-04-03T14:15:29.365Z,100184.84
2023-04-03T14:17:56.787Z,100155.53
2023-04-03T14:20:28.012Z,100161.06
2023-04-03T14:22:55.806Z,100161.81
2023-04-03T14:25:26.741Z,100167.16
2023-04-03T14:27:54.909Z,100177.13
2023-04-03T14:30:30.475Z,100184.38
2023-04-03T14:32:58.022Z,100173.81
2023-04-03T14:35:25.746Z,100181.94
2023-04-03T14:37:54.840Z,100174.31
2023-04-03T14:40:27.662Z,100165.22
2023-04-03T14:42:56.406Z,100174.31
2023-04-03T14:45:24.201Z,100171.28
2023-04-03T14:47:55.933Z,100173.56
2023-04-03T14:50:28.098Z,100170.03
2023-04-03T14:52:59.695Z,100159.13
2023-04-03T14:55:27.205Z,100149.25
2023-04-03T14:57:55.278Z,100147.16
2023-04-03T15:00:24.135Z,100140.88
2023-04-03T15:02:52.277Z,100141.19
2023-04-03T15:05:20.781Z,100145.41
2023-04-03T15:07:58.565Z,100144.69
2023-04-03T15:10:29.428Z,100133.88
2023-04-03T15:12:57.027Z,100126.66
2023-04-03T15:15:25.168Z,100129.72
2023-04-03T15:17:55.411Z,100135.97
2023-04-03T15:20:25.950Z,100133.81
2023-04-03T15:22:53.753Z,100134.63
2023-04-03T15:25:20.819Z,100135.19
2023-04-03T15:27:49.249Z,100150.13
2023-04-03T15:30:19.540Z,100141.03
2023-04-03T15:32:47.729Z,100137.66
2023-04-03T15:35:15.626Z,100131.41
2023-04-03T15:37:43.060Z,100133.94
2023-04-03T15:40:10.696Z,100130.59
2023-04-03T15:42:37.917Z,100133.00
2023-04-03T15:45:05.180Z,100123.56
2023-04-03T15:47:32.292Z,100119.81
2023-04-03T15:49:59.985Z,100130.19
2023-04-03T15:52:27.032Z,100125.41
2023-04-03T15:54:53.978Z,100127.28
2023-04-03T15:57:21.066Z,100116.50
2023-04-03T15:59:48.116Z,100117.06
2023-04-03T16:02:15.401Z,100115.91
2023-04-03T16:04:42.480Z,100100.47
2023-04-03T16:07:09.514Z,100109.53
2023-04-03T16:09:37.183Z,100102.88
2023-04-03T16:12:04.682Z,100105.22
2023-04-03T16:14:31.800Z,100099.22
2023-04-03T16:17:00.934Z,100097.13
2023-04-03T16:19:28.137Z,100106.03
2023-04-03T16:21:56.473Z,100092.91
2023-04-03T16:24:23.686Z,100107.94
2023-04-03T16:26:50.665Z,100108.13
2023-04-03T16:29:17.784Z,100122.66
2023-04-03T16:31:44.993Z,100124.28
2023-04-03T16:34:12.818Z,100140.47
2023-04-03T16:36:39.877Z,100163.53
2023-04-03T16:39:10.774Z,100182.38
2023-04-03T16:41:38.033Z,100182.38
2023-04-03T16:44:05.100Z,100197.94
2023-04-03T16:46:32.151Z,100198.38
2023-04-03T16:48:59.192Z,100200.25
2023-04-03T16:51:26.540Z,100201.84
2023-04-03T16:53:53.739Z,100186.22
2023-04-03T16:56:21.361Z,100185.09
2023-04-03T16:58:49.799Z,100180.44
2023-04-03T17:01:19.226Z,100158.75
2023-04-03T17:03:46.539Z,100164.75
2023-04-03T17:06:18.907Z,100166.81
2023-04-03T17:08:48.568Z,100173.56
2023-04-03T17:11:30.301Z,100149.63
2023-04-03T17:13:57.450Z,100151.47
2023-04-03T17:16:25.734Z,100139.84
2023-04-03T17:18:54.223Z,100111.84
2023-04-03T17:21:21.978Z,100107.22
2023-04-03T17:23:55.533Z,100105.28
2023-04-03T17:26:22.474Z,100097.31
2023-04-03T17:28:49.496Z,100093.16
2023-04-03T17:31:16.875Z,100084.25
2023-04-03T17:33:44.011Z,100081.31
2023-04-03T17:36:11.316Z,100073.41
2023-04-03T17:38:38.311Z,100086.19
2023-04-03T17:41:08.337Z,100073.75
2023-04-03T17:43:36.277Z,100075.25
2023-04-03T17:46:05.793Z,100092.31
2023-04-03T17:48:34.443Z,100088.22
2023-04-03T17:51:09.222Z,100092.81
2023-04-03T17:53:36.318Z,100111.19
2023-04-03T17:56:08.567Z,100112.13
2023-04-03T17:58:36.223Z,100112.81
2023-04-03T18:01:20.228Z,100105.16
2023-04-03T18:03:48.855Z,100120.22
2023-04-03T18:06:18.902Z,100119.91
2023-04-03T18:08:51.922Z,100136.19
2023-04-03T18:11:20.232Z,100160.66
2023-04-03T18:13:47.334Z,100159.69
2023-04-03T18:16:15.185Z,100160.56
2023-04-03T18:18:42.163Z,100178.69
2023-04-03T18:21:10.966Z,100178.25
2023-04-03T18:23:41.739Z,100154.13
2023-04-03T18:26:11.171Z,100160.75
2023-04-03T18:28:40.189Z,100132.25
2023-04-03T18:31:11.016Z,100125.31
2023-04-03T18:33:38.183Z,100109.72
2023-04-03T18:36:05.703Z,100098.72
2023-04-03T18:38:32.700Z,100084.97
2023-04-03T18:41:04.861Z,100090.94
2023-04-03T18:43:32.183Z,100081.53
2023-04-03T18:45:59.132Z,100088.84
2023-04-03T18:48:26.126Z,100076.34
2023-04-03T18:50:53.023Z,100040.06
2023-04-03T18:53:19.952Z,100045.91
2023-04-03T18:55:46.915Z,100008.72
2023-04-03T18:58:13.886Z,100006.13
2023-04-03T19:00:41.928Z,100000.78
2023-04-03T19:03:10.936Z,100022.41
2023-04-03T19:05:37.822Z,100014.59
2023-04-03T19:08:05.192Z,100024.69
2023-04-03T19:10:32.149Z,100026.34
2023-04-03T19:12:59.304Z,100030.16
2023-04-03T19:15:27.047Z,100018.03
2023-04-03T19:17:54.118Z,100037.00
2023-04-03T19:20:21.497Z,100030.66
2023-04-03T19:22:48.567Z,100028.28
2023-04-03T19:25:15.642Z,100059.41
2023-04-03T19:27:42.712Z,100104.91
2023-04-03T19:41:56.113Z,100046.53
2023-04-03T19:44:23.086Z,100047.00
2023-04-03T19:46:50.806Z,100044.09
2023-04-03T19:49:19.605Z,100024.53
2023-04-03T19:51:46.565Z,100047.34
2023-04-03T19:54:13.781Z,100013.97
2023-04-03T19:56:40.944Z,99978.03
2023-04-03T19:59:07.914Z,100006.84
2023-04-03T20:01:35.448Z,100000.38
2023-04-03T20:04:02.989Z,99997.75
2023-04-03T20:06:29.894Z,99983.94
2023-04-03T20:08:57.047Z,100006.28
2023-04-03T20:11:25.281Z,99981.03
2023-04-03T20:13:54.223Z,99972.19
2023-04-03T20:16:26.230Z,99974.56
2023-04-03T20:18:57.242Z,99964.72
2023-04-03T20:21:32.326Z,99973.16
2023-04-03T20:24:00.785Z,99982.38
2023-04-03T20:26:29.897Z,99974.78
2023-04-03T20:28:58.902Z,99976.06
2023-04-03T20:31:28.252Z,99972.22
2023-04-03T20:33:55.287Z,99963.28
2023-04-03T20:36:23.606Z,99961.50
2023-04-03T20:38:52.387Z,99971.25
2023-04-03T20:41:19.560Z,99969.13
2023-04-03T20:43:47.965Z,99994.09
2023-04-03T20:46:19.515Z,99974.69
2023-04-03T20:48:48.223Z,99971.94
2023-04-03T20:51:19.180Z,99977.75
2023-04-03T20:53:47.597Z,100001.88
2023-04-03T20:56:16.029Z,100009.00
2023-04-03T20:58:46.418Z,99997.00
2023-04-03T21:01:20.008Z,99977.59
2023-04-03T21:03:48.967Z,99993.00
2023-04-03T21:06:53.105Z,99994.78
2023-04-03T21:09:57.150Z,99986.31
2023-04-03T21:13:01.803Z,99979.06
2023-04-03T21:15:47.572Z,99979.50
2023-04-03T21:18:32.559Z,99979.69
2023-04-03T21:21:01.437Z,99973.06
2023-04-03T21:23:29.539Z,99994.94
2023-04-03T21:25:57.828Z,99972.25
2023-04-03T21:28:25.174Z,99975.00
2023-04-03T21:30:52.400Z,99971.00
2023-04-03T21:33:19.373Z,99986.19
2023-04-03T21:35:46.465Z,99949.78
2023-04-03T21:38:15.984Z,99945.25
2023-04-03T21:40:46.789Z,99974.88
2023-04-03T21:43:13.908Z,100024.09
2023-04-03T21:45:40.985Z,99958.19
2023-04-03T21:48:10.320Z,99979.91
2023-04-03T21:50:37.456Z,99982.00
2023-04-03T21:53:04.585Z,99997.53
2023-04-03T21:55:31.613Z,99973.09
2023-04-03T21:57:58.690Z,100000.78
2023-04-03T22:00:25.759Z,99992.03
2023-04-03T22:02:57.818Z,99992.19
2023-04-03T22:05:36.148Z,99975.03
2023-04-03T22:08:04.293Z,99955.63
2023-04-03T22:10:31.817Z,99965.34
2023-04-03T22:12:58.785Z,99947.72
2023-04-03T22:15:26.248Z,99942.03
2023-04-03T22:17:53.297Z,99950.63
2023-04-03T22:20:20.832Z,99930.25
2023-04-03T22:22:50.880Z,99949.66
2023-04-03T22:25:17.835Z,99925.69
2023-04-03T22:27:44.903Z,99921.47
2023-04-03T22:30:12.397Z,99937.53
2023-04-03T22:32:39.452Z,99920.00
2023-04-03T22:35:07.120Z,99915.31
2023-04-03T22:37:34.269Z,99923.41
2023-04-03T22:40:01.726Z,99933.44
2023-04-03T22:42:28.678Z,99947.34
2023-04-03T22:44:55.710Z,99911.28
2023-04-03T22:47:22.649Z,99928.44
2023-04-03T22:49:49.598Z,99919.22
2023-04-03T22:52:19.030Z,99940.22
2023-04-03T22:54:46.154Z,99937.00
2023-04-03T22:57:13.078Z,99949.16
2023-04-03T22:59:39.947Z,99913.69
2023-04-03T23:02:06.929Z,99890.69
2023-04-03T23:04:34.054Z,99887.66
2023-04-03T23:07:01.141Z,99920.97
2023-04-03T23:09:28.604Z,99906.25
2023-04-03T23:11:55.618Z,99896.06
2023-04-03T23:14:22.913Z,99934.09
2023-04-03T23:16:50.085Z,99923.09
2023-04-03T23:19:17.981Z,99919.38
2023-04-03T23:21:45.862Z,99924.88
2023-04-03T23:24:13.069Z,99935.53
2023-04-03T23:26:40.123Z,99919.69
2023-04-03T23:29:07.933Z,99940.91
2023-04-03T23:31:34.991Z,99925.88
2023-04-03T23:34:01.989Z,99947.72
2023-04-03T23:36:28.949Z,99913.41
2023-04-03T23:38:59.151Z,99928.28
2023-04-03T23:41:27.029Z,99896.41
2023-04-03T23:43:54.113Z,99879.91
2023-04-03T23:46:21.083Z,99897.19
2023-04-03T23:48:48.172Z,99888.63
2023-04-03T23:51:15.306Z,99951.75
2023-04-03T23:53:42.244Z,99902.72
2023-04-03T23:56:12.667Z,99902.53
2023-04-03T23:58:39.685Z,99881.47
